createdAt,value
2018-01-17T00:00:00.118Z,98379.71
2018-01-17T00:02:27.073Z,98377.55
2018-01-17T00:04:53.891Z,98367.55
2018-01-17T00:07:20.708Z,98355.53
2018-01-17T00:09:47.515Z,98352.48
2018-01-17T00:12:15.646Z,98358.44
2018-01-17T00:14:42.544Z,98359.60
2018-01-17T00:17:09.391Z,98363.60
2018-01-17T00:19:36.200Z,98363.86
2018-01-17T00:22:03.780Z,98344.59
2018-01-17T00:24:31.322Z,98337.48
2018-01-17T00:26:58.178Z,98337.28
2018-01-17T00:29:25.013Z,98327.84
2018-01-17T00:31:51.814Z,98330.22
2018-01-17T00:34:18.623Z,98327.89
2018-01-17T00:36:45.444Z,98325.20
2018-01-17T00:39:12.253Z,98322.09
2018-01-17T00:41:39.060Z,98324.38
2018-01-17T00:44:06.016Z,98322.09
2018-01-17T00:46:32.898Z,98312.86
2018-01-17T00:49:00.475Z,98309.16
2018-01-17T00:51:28.020Z,98312.87
2018-01-17T00:53:55.991Z,98304.64
2018-01-17T00:56:22.942Z,98304.40
2018-01-17T00:58:49.781Z,98307.26
2018-01-17T01:01:16.625Z,98302.74
2018-01-17T01:03:44.257Z,98313.38
2018-01-17T01:06:11.178Z,98307.30
2018-01-17T01:08:38.040Z,98316.58
2018-01-17T01:11:04.905Z,98310.87
2018-01-17T01:13:32.446Z,98306.91
2018-01-17T01:15:59.262Z,98304.30
2018-01-17T01:18:26.094Z,98302.39
2018-01-17T01:20:53.655Z,98300.63
2018-01-17T01:23:20.473Z,98293.78
2018-01-17T01:25:47.304Z,98288.94
2018-01-17T01:28:14.148Z,98286.75
2018-01-17T01:30:41.683Z,98286.36
2018-01-17T01:33:08.512Z,98285.77
2018-01-17T01:35:35.331Z,98280.92
2018-01-17T01:38:02.130Z,98284.24
2018-01-17T01:40:28.952Z,98290.25
2018-01-17T01:42:55.788Z,98291.34
2018-01-17T01:45:22.670Z,98296.00
2018-01-17T01:47:49.496Z,98321.74
2018-01-17T01:50:16.371Z,98318.17
2018-01-17T01:52:43.205Z,98301.76
2018-01-17T01:55:10.000Z,98296.78
2018-01-17T01:57:36.814Z,98300.95
2018-01-17T02:00:03.682Z,98304.08
2018-01-17T02:02:30.484Z,98297.17
2018-01-17T02:04:57.318Z,98361.27
2018-01-17T02:07:25.614Z,98409.31
2018-01-17T02:09:54.189Z,98408.33
2018-01-17T02:12:21.700Z,98424.05
2018-01-17T02:14:56.636Z,98435.81
2018-01-17T02:17:23.967Z,98440.86
2018-01-17T02:22:52.068Z,98454.09
2018-01-17T02:25:24.092Z,98446.48
2018-01-17T02:27:53.060Z,98453.34
2018-01-17T02:30:22.631Z,98442.02
2018-01-17T02:32:59.640Z,98436.67
2018-01-17T02:35:37.106Z,98439.58
2018-01-17T02:40:46.823Z,98443.61
2018-01-17T02:43:14.507Z,98436.58
2018-01-17T02:45:42.082Z,98434.62
2018-01-17T02:48:14.108Z,98448.52
2018-01-17T02:50:45.194Z,98444.05
2018-01-17T02:53:14.482Z,98439.06
2018-01-17T02:55:41.704Z,98428.17
2018-01-17T02:58:08.770Z,98432.04
2018-01-17T03:00:35.875Z,98433.07
2018-01-17T03:03:03.662Z,98437.55
2018-01-17T03:05:30.681Z,98431.28
2018-01-17T03:07:59.396Z,98425.05
2018-01-17T03:10:26.611Z,98413.55
2018-01-17T03:12:53.719Z,98413.36
2018-01-17T03:15:20.806Z,98418.06
2018-01-17T03:17:47.967Z,98413.77
2018-01-17T03:20:15.406Z,98412.36
2018-01-17T03:22:42.560Z,98414.42
2018-01-17T03:25:09.700Z,98413.45
2018-01-17T03:27:36.864Z,98406.46
2018-01-17T03:30:04.747Z,98406.17
2018-01-17T03:32:31.873Z,98408.19
2018-01-17T03:34:58.966Z,98408.20
2018-01-17T03:37:25.916Z,98416.25
2018-01-17T03:39:52.918Z,98410.69
2018-01-17T03:42:19.962Z,98410.30
2018-01-17T03:44:46.906Z,98427.88
2018-01-17T03:47:13.899Z,98435.26
2018-01-17T03:49:40.884Z,98442.67
2018-01-17T03:52:07.934Z,98443.19
2018-01-17T03:54:34.923Z,98443.84
2018-01-17T03:57:01.929Z,98453.56
2018-01-17T03:59:28.895Z,98442.36
2018-01-17T04:01:55.835Z,98458.31
2018-01-17T04:04:22.829Z,98467.35
2018-01-17T04:06:49.784Z,98465.34
2018-01-17T04:09:16.854Z,98460.87
2018-01-17T04:11:43.772Z,98468.60
2018-01-17T04:14:11.960Z,98463.37
2018-01-17T04:16:38.927Z,98465.45
2018-01-17T04:19:06.630Z,98473.75
2018-01-17T04:21:33.623Z,98478.41
2018-01-17T04:24:00.562Z,98477.76
2018-01-17T04:26:27.421Z,98475.77
2018-01-17T04:28:54.278Z,98473.72
2018-01-17T04:31:21.265Z,98479.91
2018-01-17T04:33:48.141Z,98488.40
2018-01-17T04:36:15.020Z,98487.22
2018-01-17T04:38:41.917Z,98488.39
2018-01-17T04:41:08.798Z,98486.50
2018-01-17T04:43:35.717Z,98488.77
2018-01-17T04:46:03.470Z,98492.37
2018-01-17T04:48:30.327Z,98494.28
2018-01-17T04:50:57.218Z,98495.95
2018-01-17T04:53:24.027Z,98494.41
2018-01-17T04:55:50.932Z,98502.20
2018-01-17T04:58:17.760Z,98505.65
2018-01-17T05:00:44.646Z,98505.13
2018-01-17T05:03:11.466Z,98510.84
2018-01-17T05:05:38.300Z,98517.17
2018-01-17T05:08:05.183Z,98522.27
2018-01-17T05:10:32.098Z,98537.95
2018-01-17T05:12:59.100Z,98554.00
2018-01-17T05:15:26.072Z,98557.12
2018-01-17T05:17:53.080Z,98562.27
2018-01-17T05:20:19.981Z,98576.02
2018-01-17T05:22:47.072Z,98585.22
2018-01-17T05:25:14.396Z,98601.50
2018-01-17T05:27:42.547Z,98599.67
2018-01-17T05:30:10.880Z,98599.27
2018-01-17T05:32:38.391Z,98604.16
2018-01-17T05:35:06.858Z,98612.00
2018-01-17T05:37:36.731Z,98617.72
2018-01-17T05:40:04.259Z,98623.67
2018-01-17T05:42:32.236Z,98628.98
2018-01-17T05:45:00.509Z,98621.19
2018-01-17T05:47:27.831Z,98626.05
2018-01-17T05:49:57.325Z,98633.09
2018-01-17T05:52:31.265Z,98636.66
2018-01-17T05:54:58.158Z,98642.39
2018-01-17T05:57:25.068Z,98639.52
2018-01-17T05:59:52.667Z,98643.83
2018-01-17T06:02:19.574Z,98647.75
2018-01-17T06:04:47.423Z,98649.58
2018-01-17T06:07:19.059Z,98655.73
2018-01-17T06:09:45.910Z,98662.61
2018-01-17T06:12:12.904Z,98672.25
2018-01-17T06:14:39.762Z,98672.04
2018-01-17T06:17:06.595Z,98677.54
2018-01-17T06:19:33.836Z,98679.39
2018-01-17T06:22:00.937Z,98689.16
2018-01-17T06:24:27.774Z,98691.22
2018-01-17T06:26:54.701Z,98702.53
2018-01-17T06:29:21.537Z,98700.08
2018-01-17T06:31:48.866Z,98711.16
2018-01-17T06:34:16.519Z,98726.06
2018-01-17T06:36:43.424Z,98709.47
2018-01-17T06:39:10.251Z,98708.88
2018-01-17T06:41:37.126Z,98733.43
2018-01-17T06:44:04.814Z,98735.67
2018-01-17T06:46:32.657Z,98730.55
2018-01-17T06:48:59.627Z,98739.10
2018-01-17T06:51:26.590Z,98751.50
2018-01-17T06:56:30.862Z,98761.83
2018-01-17T06:58:58.078Z,98768.73
2018-01-17T07:01:24.953Z,98775.73
2018-01-17T07:04:00.448Z,98786.02
2018-01-17T07:06:27.295Z,98793.81
2018-01-17T07:08:54.170Z,98802.19
2018-01-17T07:11:21.092Z,98805.31
2018-01-17T07:13:48.751Z,98811.84
2018-01-17T07:16:15.558Z,98810.88
2018-01-17T07:18:43.645Z,98819.09
2018-01-17T07:21:10.543Z,98825.30
2018-01-17T07:23:38.237Z,98820.73
2018-01-17T07:26:05.252Z,98833.30
2018-01-17T07:28:32.181Z,98836.64
2018-01-17T07:30:59.048Z,98845.84
2018-01-17T07:33:25.872Z,98843.13
2018-01-17T07:35:53.606Z,98838.45
2018-01-17T07:38:20.452Z,98862.85
2018-01-17T07:40:47.304Z,98857.61
2018-01-17T07:43:14.133Z,98863.75
2018-01-17T07:45:40.973Z,98870.08
2018-01-17T07:48:07.916Z,98870.12
2018-01-17T07:50:34.757Z,98875.61
2018-01-17T07:53:01.584Z,98876.31
2018-01-17T07:55:29.200Z,98874.74
2018-01-17T07:57:56.026Z,98887.38
2018-01-17T08:00:22.954Z,98894.88
2018-01-17T08:02:49.775Z,98903.89
2018-01-17T08:05:16.596Z,98905.27
2018-01-17T08:07:43.589Z,98915.19
2018-01-17T08:10:10.400Z,98914.15
2018-01-17T08:12:37.269Z,98928.22
2018-01-17T08:15:04.121Z,98928.66
2018-01-17T08:17:30.930Z,98935.16
2018-01-17T08:40:59.037Z,98966.88
2018-01-17T08:43:26.678Z,98983.63
2018-01-17T08:45:53.512Z,98981.46
2018-01-17T08:48:20.340Z,98973.88
2018-01-17T08:50:47.208Z,98976.83
2018-01-17T08:53:14.850Z,98983.00
2018-01-17T08:55:41.647Z,98989.36
2018-01-17T09:01:08.720Z,99002.55
2018-01-17T09:21:34.513Z,99057.63
2018-01-17T09:24:02.451Z,99048.39
2018-01-17T09:26:29.253Z,99065.09
2018-01-17T09:28:56.120Z,99064.69
2018-01-17T09:31:22.961Z,99080.67
2018-01-17T09:33:49.761Z,99085.97
2018-01-17T09:36:16.573Z,99088.04
2018-01-17T10:23:42.328Z,99162.39
2018-01-17T10:35:09.081Z,99160.45
2018-01-17T10:43:36.267Z,99175.63
2018-01-17T10:46:03.067Z,99182.88
2018-01-17T10:48:30.231Z,99179.56
2018-01-17T10:50:57.518Z,99179.74
2018-01-17T10:53:24.310Z,99184.80
2018-01-17T10:58:52.149Z,99184.63
2018-01-17T11:01:20.697Z,99185.31
2018-01-17T11:03:48.192Z,99189.22
2018-01-17T11:06:15.773Z,99182.85
2018-01-17T11:17:36.621Z,99201.23
2018-01-17T11:20:03.534Z,99195.77
2018-01-17T11:22:30.308Z,99190.20
2018-01-17T11:33:56.787Z,99182.78
2018-01-17T11:39:23.620Z,99185.66
2018-01-17T11:41:50.392Z,99175.73
2018-01-17T11:44:17.216Z,99178.36
2018-01-17T11:46:44.032Z,99182.45
2018-01-17T11:55:11.783Z,99205.50
2018-01-17T11:57:38.549Z,99202.44
2018-01-17T12:00:05.369Z,99205.36
2018-01-17T12:02:32.223Z,99203.46
2018-01-17T12:10:58.805Z,99210.87
2018-01-17T12:13:25.611Z,99208.61
2018-01-17T12:15:52.368Z,99203.14
2018-01-17T12:24:18.574Z,99202.02
2018-01-17T12:32:45.941Z,99214.23
2018-01-17T12:35:13.583Z,99209.84
2018-01-17T12:37:40.386Z,99202.36
2018-01-17T12:49:08.402Z,99215.11
2018-01-17T12:51:35.206Z,99213.20
2018-01-17T12:54:02.764Z,99222.41
2018-01-17T12:56:29.533Z,99206.88
2018-01-17T12:58:57.031Z,99219.05
2018-01-17T13:01:23.782Z,99212.54
2018-01-17T13:03:50.552Z,99220.33
2018-01-17T13:06:17.306Z,99228.80
2018-01-17T13:08:44.071Z,99216.80
2018-01-17T13:11:10.888Z,99229.38
2018-01-17T13:13:38.073Z,99225.92
2018-01-17T13:16:05.572Z,99242.85
2018-01-17T13:18:32.371Z,99225.91
2018-01-17T13:20:59.190Z,99229.99
2018-01-17T13:23:26.022Z,99244.86
2018-01-17T13:25:53.510Z,99242.14
2018-01-17T13:28:21.025Z,99258.54
2018-01-17T13:30:47.773Z,99272.02
2018-01-17T13:33:14.536Z,99262.95
2018-01-17T13:35:41.337Z,99264.45
2018-01-17T13:38:08.132Z,99278.81
2018-01-17T13:40:35.620Z,99282.55
2018-01-17T13:43:02.365Z,99285.09
2018-01-17T13:45:29.873Z,99277.92
2018-01-17T13:47:56.675Z,99283.19
2018-01-17T13:50:23.927Z,99282.26
2018-01-17T13:52:50.992Z,99288.70
2018-01-17T13:55:18.230Z,99293.24
2018-01-17T13:57:45.513Z,99301.88
2018-01-17T14:00:13.157Z,99301.03
2018-01-17T14:02:40.711Z,99291.05
2018-01-17T14:05:08.691Z,99314.04
2018-01-17T14:07:36.623Z,99318.66
2018-01-17T14:10:03.539Z,99316.93
2018-01-17T14:15:31.065Z,99334.25
2018-01-17T14:17:58.626Z,99329.45
2018-01-17T14:20:25.489Z,99338.66
2018-01-17T14:22:52.290Z,99344.16
2018-01-17T14:25:19.635Z,99360.26
2018-01-17T14:27:47.191Z,99355.91
2018-01-17T14:30:14.003Z,99352.55
2018-01-17T14:32:40.787Z,99358.63
2018-01-17T14:35:07.639Z,99359.13
2018-01-17T14:37:34.414Z,99378.31
2018-01-17T14:40:01.226Z,99386.93
2018-01-17T14:42:28.017Z,99388.23
2018-01-17T14:44:54.826Z,99404.32
2018-01-17T14:47:31.275Z,99416.95
2018-01-17T14:50:04.861Z,99423.56
2018-01-17T14:52:32.017Z,99438.70
2018-01-17T14:54:58.801Z,99448.09
2018-01-17T14:57:27.049Z,99442.89
2018-01-17T14:59:56.429Z,99450.45
2018-01-17T15:02:23.254Z,99455.86
2018-01-17T15:04:50.046Z,99464.91
2018-01-17T15:07:17.964Z,99471.88
2018-01-17T15:09:44.778Z,99485.91
2018-01-17T15:12:11.720Z,99506.72
2018-01-17T15:14:38.500Z,99503.17
2018-01-17T15:17:05.385Z,99498.47
2018-01-17T15:19:32.284Z,99509.72
2018-01-17T15:22:00.362Z,99515.36
2018-01-17T15:24:28.038Z,99513.61
2018-01-17T15:29:56.120Z,99508.06
2018-01-17T15:35:29.528Z,99533.70
2018-01-17T15:37:56.695Z,99532.03
2018-01-17T15:40:23.580Z,99525.23
2018-01-17T15:42:51.019Z,99542.05
2018-01-17T15:45:17.876Z,99556.54
2018-01-17T15:47:45.691Z,99555.61
2018-01-17T15:50:12.706Z,99558.78
2018-01-17T15:52:39.520Z,99559.92
2018-01-17T15:55:06.325Z,99566.66
2018-01-17T15:57:33.125Z,99564.34
2018-01-17T16:00:00.041Z,99557.89
2018-01-17T16:02:27.563Z,99554.09
2018-01-17T16:04:54.453Z,99567.20
2018-01-17T16:07:21.318Z,99561.50
2018-01-17T16:09:48.114Z,99576.50
2018-01-17T16:12:17.492Z,99587.91
2018-01-17T16:14:44.314Z,99601.50
2018-01-17T16:17:11.177Z,99600.61
2018-01-17T16:19:38.909Z,99596.53
2018-01-17T16:22:12.684Z,99606.63
2018-01-17T16:24:39.456Z,99603.30
2018-01-17T16:27:06.324Z,99612.71
2018-01-17T16:29:33.146Z,99615.46
2018-01-17T16:32:00.909Z,99613.31
2018-01-17T16:34:28.717Z,99621.94
2018-01-17T16:36:55.631Z,99633.33
2018-01-17T16:39:22.459Z,99638.22
2018-01-17T16:41:49.315Z,99632.95
2018-01-17T16:44:17.381Z,99636.30
2018-01-17T16:46:44.308Z,99632.86
2018-01-17T16:49:11.122Z,99631.67
2018-01-17T16:51:37.941Z,99637.68
2018-01-17T16:54:04.740Z,99649.23
2018-01-17T16:56:31.585Z,99643.52
2018-01-17T16:58:58.378Z,99645.77
2018-01-17T17:01:25.158Z,99656.55
2018-01-17T17:03:51.991Z,99663.52
2018-01-17T17:06:18.763Z,99675.55
2018-01-17T17:08:45.584Z,99676.92
2018-01-17T17:11:12.393Z,99673.38
2018-01-17T17:13:39.198Z,99664.52
2018-01-17T17:16:06.795Z,99672.63
2018-01-17T17:18:33.608Z,99666.72
2018-01-17T17:21:00.793Z,99678.23
2018-01-17T17:23:28.340Z,99683.38
2018-01-17T17:25:55.174Z,99695.14
2018-01-17T17:28:21.981Z,99697.21
2018-01-17T17:30:48.817Z,99689.98
2018-01-17T17:33:15.673Z,99702.97
2018-01-17T17:35:42.640Z,99721.23
2018-01-17T17:38:09.419Z,99711.58
2018-01-17T17:40:36.244Z,99727.94
2018-01-17T17:43:03.373Z,99717.61
2018-01-17T17:45:30.318Z,99723.62
2018-01-17T17:47:57.179Z,99726.78
2018-01-17T17:50:24.527Z,99719.87
2018-01-17T17:52:51.973Z,99728.24
2018-01-17T17:55:19.589Z,99729.61
2018-01-17T17:57:46.396Z,99737.49
2018-01-17T18:00:13.240Z,99735.97
2018-01-17T18:02:41.117Z,99742.50
2018-01-17T18:05:08.763Z,99751.51
2018-01-17T18:07:36.231Z,99758.91
2018-01-17T18:10:03.774Z,99750.20
2018-01-17T18:12:31.302Z,99752.86
2018-01-17T18:14:59.722Z,99751.34
2018-01-17T18:17:27.904Z,99752.41
2018-01-17T18:19:55.331Z,99741.67
2018-01-17T18:22:22.856Z,99746.11
2018-01-17T18:24:50.488Z,99750.84
2018-01-17T18:27:17.304Z,99752.00
2018-01-17T18:29:45.527Z,99761.78
2018-01-17T18:32:12.992Z,99766.08
2018-01-17T18:34:40.034Z,99755.55
2018-01-17T18:37:06.930Z,99758.76
2018-01-17T18:39:33.780Z,99763.11
2018-01-17T18:42:01.707Z,99752.73
2018-01-17T18:44:28.503Z,99767.59
2018-01-17T18:46:55.416Z,99766.81
2018-01-17T18:49:24.112Z,99759.64
2018-01-17T18:51:56.278Z,99762.88
2018-01-17T18:54:24.996Z,99773.19
2018-01-17T18:56:52.483Z,99775.47
2018-01-17T18:59:19.730Z,99774.38
2018-01-17T19:01:47.508Z,99781.47
2018-01-17T19:04:14.747Z,99774.66
2018-01-17T19:06:42.410Z,99778.13
2018-01-17T19:09:10.152Z,99780.73
2018-01-17T19:11:37.645Z,99776.47
2018-01-17T19:14:05.401Z,99776.23
2018-01-17T19:16:32.595Z,99778.11
2018-01-17T19:18:59.562Z,99778.54
2018-01-17T19:21:27.302Z,99786.19
2018-01-17T19:23:54.772Z,99780.37
2018-01-17T19:26:22.876Z,99781.81
2018-01-17T19:28:49.808Z,99782.82
2018-01-17T19:31:17.436Z,99784.72
2018-01-17T19:33:46.122Z,99789.60
2018-01-17T19:36:14.709Z,99785.77
2018-01-17T19:38:43.557Z,99790.91
2018-01-17T19:41:12.274Z,99791.81
2018-01-17T19:43:39.496Z,99793.72
2018-01-17T19:46:08.240Z,99789.44
2018-01-17T19:48:35.428Z,99789.42
2018-01-17T19:51:02.463Z,99789.64
2018-01-17T19:53:30.410Z,99789.02
2018-01-17T19:55:58.881Z,99791.62
2018-01-17T19:58:26.337Z,99793.88
2018-01-17T20:00:55.702Z,99795.36
2018-01-17T20:03:24.461Z,99795.37
2018-01-17T20:05:52.438Z,99795.87
2018-01-17T20:08:19.840Z,99803.70
2018-01-17T20:10:47.970Z,99811.61
2018-01-17T20:13:15.493Z,99792.82
2018-01-17T20:15:44.189Z,99801.98
2018-01-17T20:18:11.688Z,99800.75
2018-01-17T20:20:41.496Z,99797.77
2018-01-17T20:23:09.931Z,99805.88
2018-01-17T20:25:37.357Z,99802.36
2018-01-17T20:28:06.420Z,99800.68
2018-01-17T20:30:34.347Z,99800.66
2018-01-17T20:33:03.088Z,99809.27
2018-01-17T20:35:31.644Z,99799.06
2018-01-17T20:38:01.352Z,99798.75
2018-01-17T20:40:30.873Z,99796.23
2018-01-17T20:42:58.758Z,99806.16
2018-01-17T20:45:25.660Z,99809.41
2018-01-17T20:47:53.069Z,99824.95
2018-01-17T20:50:20.709Z,99794.31
2018-01-17T20:52:48.288Z,99805.39
2018-01-17T20:55:15.146Z,99806.00
2018-01-17T20:57:41.976Z,99799.37
2018-01-17T21:00:11.163Z,99802.81
2018-01-17T21:02:38.085Z,99793.56
2018-01-17T21:05:05.369Z,99799.32
2018-01-17T21:07:32.401Z,99803.38
2018-01-17T21:09:59.267Z,99804.46
2018-01-17T21:12:26.080Z,99806.71
2018-01-17T21:14:52.925Z,99810.70
2018-01-17T21:17:19.775Z,99815.36
2018-01-17T21:19:46.608Z,99809.98
2018-01-17T21:22:13.613Z,99814.99
2018-01-17T21:24:42.168Z,99817.31
2018-01-17T21:27:09.036Z,99816.41
2018-01-17T21:29:35.861Z,99817.60
2018-01-17T21:32:03.750Z,99818.27
2018-01-17T21:34:30.611Z,99817.11
2018-01-17T21:36:57.804Z,99814.34
2018-01-17T21:39:24.808Z,99815.85
2018-01-17T21:41:51.936Z,99822.03
2018-01-17T21:44:24.707Z,99829.00
2018-01-17T21:46:51.559Z,99823.55
2018-01-17T21:49:18.384Z,99831.61
2018-01-17T21:51:45.223Z,99837.03
2018-01-17T21:54:12.084Z,99842.34
2018-01-17T21:56:38.945Z,99840.08
2018-01-17T21:59:05.824Z,99820.22
2018-01-17T22:01:32.686Z,99828.39
2018-01-17T22:04:00.140Z,99833.86
2018-01-17T22:06:27.000Z,99824.13
2018-01-17T22:08:54.607Z,99821.27
2018-01-17T22:11:21.480Z,99830.73
2018-01-17T22:13:49.072Z,99812.50
2018-01-17T22:16:16.723Z,99817.39
2018-01-17T22:18:43.772Z,99816.88
2018-01-17T22:21:10.701Z,99815.55
2018-01-17T22:23:37.664Z,99808.95
2018-01-17T22:26:05.351Z,99807.01
2018-01-17T22:28:33.124Z,99804.08
2018-01-17T22:31:00.244Z,99795.13
2018-01-17T22:33:27.167Z,99799.36
2018-01-17T22:35:54.863Z,99793.43
2018-01-17T22:38:22.016Z,99795.68
2018-01-17T22:40:50.419Z,99792.05
2018-01-17T22:43:17.454Z,99788.41
2018-01-17T22:45:45.138Z,99791.69
2018-01-17T22:48:12.112Z,99791.27
2018-01-17T22:50:39.791Z,99784.99
2018-01-17T22:53:07.482Z,99785.16
2018-01-17T22:55:35.251Z,99791.30
2018-01-17T22:58:02.272Z,99786.12
2018-01-17T23:00:29.625Z,99784.36
2018-01-17T23:02:56.574Z,99791.88
2018-01-17T23:05:24.293Z,99797.40
2018-01-17T23:07:51.420Z,99789.25
2018-01-17T23:10:18.609Z,99795.09
2018-01-17T23:12:45.617Z,99794.27
2018-01-17T23:15:12.967Z,99784.12
2018-01-17T23:17:39.927Z,99776.06
2018-01-17T23:20:08.282Z,99775.61
2018-01-17T23:22:35.506Z,99764.63
2018-01-17T23:25:02.864Z,99774.72
2018-01-17T23:27:30.506Z,99772.52
2018-01-17T23:29:58.474Z,99771.55
2018-01-17T23:32:25.504Z,99771.43
2018-01-17T23:34:52.991Z,99768.13
2018-01-17T23:37:21.522Z,99765.61
2018-01-17T23:39:48.612Z,99758.97
2018-01-17T23:42:15.585Z,99750.63
2018-01-17T23:44:42.587Z,99745.47
2018-01-17T23:47:09.630Z,99726.03
2018-01-17T23:49:37.121Z,99737.02
2018-01-17T23:52:05.607Z,99740.10
2018-01-17T23:54:32.673Z,99730.95
2018-01-17T23:56:59.719Z,99722.98
2018-01-17T23:59:26.743Z,99726.52
